sensor_id;sensor_type;location;lat;lon;timestamp;pressure;altitude;pressure_sealevel;temperature;humidity
73085;BME280;62974;49.460;10.892;2022-09-23T00:01:13;98221.63;;;8.30;70.96
73085;BME280;62974;49.460;10.892;2022-09-23T00:03:42;98218.13;;;8.29;70.70
73085;BME280;62974;49.460;10.892;2022-09-23T00:06:13;98220.97;;;8.28;70.78
73085;BME280;62974;49.460;10.892;2022-09-23T00:08:41;98212.25;;;8.26;71.02
73085;BME280;62974;49.460;10.892;2022-09-23T00:11:12;98214.09;;;8.25;70.87
73085;BME280;62974;49.460;10.892;2022-09-23T00:13:42;98211.63;;;8.24;70.98
73085;BME280;62974;49.460;10.892;2022-09-23T00:16:12;98211.94;;;8.21;70.94
73085;BME280;62974;49.460;10.892;2022-09-23T00:18:40;98209.28;;;8.21;71.00
73085;BME280;62974;49.460;10.892;2022-09-23T00:21:10;98215.97;;;8.17;70.88
73085;BME280;62974;49.460;10.892;2022-09-23T00:23:39;98214.34;;;8.16;70.87
73085;BME280;62974;49.460;10.892;2022-09-23T00:26:08;98218.84;;;8.15;70.85
73085;BME280;62974;49.460;10.892;2022-09-23T00:28:38;98212.81;;;8.13;70.89
73085;BME280;62974;49.460;10.892;2022-09-23T00:31:07;98211.50;;;8.09;71.10
73085;BME280;62974;49.460;10.892;2022-09-23T00:33:35;98207.19;;;8.08;70.83
73085;BME280;62974;49.460;10.892;2022-09-23T00:36:05;98201.00;;;8.08;70.81
73085;BME280;62974;49.460;10.892;2022-09-23T00:38:33;98197.50;;;8.07;71.36
73085;BME280;62974;49.460;10.892;2022-09-23T00:41:01;98197.00;;;8.03;71.03
73085;BME280;62974;49.460;10.892;2022-09-23T00:43:38;98193.84;;;8.00;71.00
73085;BME280;62974;49.460;10.892;2022-09-23T00:46:08;98187.81;;;7.98;70.92
73085;BME280;62974;49.460;10.892;2022-09-23T00:48:38;98184.69;;;7.94;71.06
73085;BME280;62974;49.460;10.892;2022-09-23T00:51:08;98188.00;;;7.96;70.69
73085;BME280;62974;49.460;10.892;2022-09-23T00:53:38;98188.34;;;7.93;70.87
73085;BME280;62974;49.460;10.892;2022-09-23T00:56:07;98196.56;;;7.92;70.26
73085;BME280;62974;49.460;10.892;2022-09-23T00:58:40;98192.22;;;7.91;70.95
73085;BME280;62974;49.460;10.892;2022-09-23T01:01:09;98182.88;;;7.87;70.84
73085;BME280;62974;49.460;10.892;2022-09-23T01:03:40;98185.56;;;7.87;70.75
73085;BME280;62974;49.460;10.892;2022-09-23T01:06:09;98185.56;;;7.87;70.66
73085;BME280;62974;49.460;10.892;2022-09-23T01:08:37;98180.56;;;7.84;70.68
73085;BME280;62974;49.460;10.892;2022-09-23T01:11:12;98183.03;;;7.85;70.85
73085;BME280;62974;49.460;10.892;2022-09-23T01:13:51;98185.22;;;7.82;70.79
73085;BME280;62974;49.460;10.892;2022-09-23T01:16:27;98186.59;;;7.78;70.77
73085;BME280;62974;49.460;10.892;2022-09-23T01:19:09;98185.09;;;7.75;70.94
73085;BME280;62974;49.460;10.892;2022-09-23T01:21:44;98186.59;;;7.78;70.88
73085;BME280;62974;49.460;10.892;2022-09-23T01:24:48;98193.13;;;7.75;70.72
73085;BME280;62974;49.460;10.892;2022-09-23T01:27:36;98185.63;;;7.71;70.91
73085;BME280;62974;49.460;10.892;2022-09-23T01:30:17;98182.78;;;7.72;70.88
73085;BME280;62974;49.460;10.892;2022-09-23T01:33:00;98175.09;;;7.69;70.76
73085;BME280;62974;49.460;10.892;2022-09-23T01:35:40;98178.09;;;7.66;70.86
73085;BME280;62974;49.460;10.892;2022-09-23T01:38:17;98178.09;;;7.66;70.84
73085;BME280;62974;49.460;10.892;2022-09-23T01:40:50;98169.25;;;7.66;70.87
73085;BME280;62974;49.460;10.892;2022-09-23T01:43:24;98170.09;;;7.66;70.62
73085;BME280;62974;49.460;10.892;2022-09-23T01:45:57;98164.25;;;7.63;70.79
73085;BME280;62974;49.460;10.892;2022-09-23T01:48:30;98169.13;;;7.59;70.81
73085;BME280;62974;49.460;10.892;2022-09-23T01:51:03;98165.44;;;7.60;70.83
73085;BME280;62974;49.460;10.892;2022-09-23T01:53:38;98162.09;;;7.58;70.89
73085;BME280;62974;49.460;10.892;2022-09-23T01:56:10;98163.28;;;7.55;70.75
73085;BME280;62974;49.460;10.892;2022-09-23T01:58:41;98163.81;;;7.51;70.88
73085;BME280;62974;49.460;10.892;2022-09-23T02:01:14;98160.13;;;7.52;70.91
73085;BME280;62974;49.460;10.892;2022-09-23T02:03:50;98164.81;;;7.50;70.92
73085;BME280;62974;49.460;10.892;2022-09-23T02:06:22;98163.13;;;7.49;71.15
73085;BME280;62974;49.460;10.892;2022-09-23T02:08:56;98163.13;;;7.49;70.81
73085;BME280;62974;49.460;10.892;2022-09-23T02:11:26;98161.13;;;7.51;70.82
73085;BME280;62974;49.460;10.892;2022-09-23T02:13:57;98156.31;;;7.46;70.79
73085;BME280;62974;49.460;10.892;2022-09-23T02:16:29;98156.31;;;7.46;70.88
73085;BME280;62974;49.460;10.892;2022-09-23T02:19:03;98153.31;;;7.41;71.02
73085;BME280;62974;49.460;10.892;2022-09-23T02:21:34;98153.31;;;7.41;70.85
73085;BME280;62974;49.460;10.892;2022-09-23T02:24:08;98153.66;;;7.38;71.16
73085;BME280;62974;49.460;10.892;2022-09-23T02:26:44;98152.81;;;7.38;71.01
73085;BME280;62974;49.460;10.892;2022-09-23T02:29:18;98153.16;;;7.35;70.79
73085;BME280;62974;49.460;10.892;2022-09-23T02:31:54;98153.16;;;7.35;70.76
73085;BME280;62974;49.460;10.892;2022-09-23T02:34:31;98154.00;;;7.35;71.08
73085;BME280;62974;49.460;10.892;2022-09-23T02:37:10;98152.31;;;7.34;70.75
73085;BME280;62974;49.460;10.892;2022-09-23T02:39:52;98158.03;;;7.31;70.86
73085;BME280;62974;49.460;10.892;2022-09-23T02:42:24;98151.34;;;7.27;70.75
73085;BME280;62974;49.460;10.892;2022-09-23T02:44:56;98151.50;;;7.26;71.35
73085;BME280;62974;49.460;10.892;2022-09-23T02:47:28;98147.69;;;7.28;70.73
73085;BME280;62974;49.460;10.892;2022-09-23T02:49:58;98155.03;;;7.26;70.78
73085;BME280;62974;49.460;10.892;2022-09-23T02:52:26;98149.69;;;7.26;70.59
73085;BME280;62974;49.460;10.892;2022-09-23T02:54:53;98159.03;;;7.22;70.81
73085;BME280;62974;49.460;10.892;2022-09-23T02:57:22;98157.19;;;7.23;70.74
73085;BME280;62974;49.460;10.892;2022-09-23T02:59:49;98151.19;;;7.21;70.46
73085;BME280;62974;49.460;10.892;2022-09-23T03:02:39;98154.03;;;7.19;70.79
73085;BME280;62974;49.460;10.892;2022-09-23T03:05:18;98150.69;;;7.17;70.59
73085;BME280;62974;49.460;10.892;2022-09-23T03:07:58;98142.69;;;7.17;70.54
73085;BME280;62974;49.460;10.892;2022-09-23T03:10:35;98148.53;;;7.13;70.61
73085;BME280;62974;49.460;10.892;2022-09-23T03:13:14;98153.56;;;7.16;70.50
73085;BME280;62974;49.460;10.892;2022-09-23T03:15:48;98146.69;;;7.13;70.56
73085;BME280;62974;49.460;10.892;2022-09-23T03:18:20;98146.03;;;7.11;70.25
73085;BME280;62974;49.460;10.892;2022-09-23T03:21:01;98142.88;;;7.07;70.66
73085;BME280;62974;49.460;10.892;2022-09-23T03:23:33;98146.41;;;7.08;70.45
73085;BME280;62974;49.460;10.892;2022-09-23T03:26:05;98143.25;;;7.04;70.33
73085;BME280;62974;49.460;10.892;2022-09-23T03:28:36;98140.72;;;7.03;70.43
73085;BME280;62974;49.460;10.892;2022-09-23T03:31:05;98139.06;;;7.02;70.44
73085;BME280;62974;49.460;10.892;2022-09-23T03:33:33;98132.22;;;6.99;70.47
73085;BME280;62974;49.460;10.892;2022-09-23T03:36:07;98133.06;;;7.00;70.44
73085;BME280;62974;49.460;10.892;2022-09-23T03:38:56;98124.22;;;6.99;70.38
73085;BME280;62974;49.460;10.892;2022-09-23T03:41:30;98126.19;;;6.97;70.30
73085;BME280;62974;49.460;10.892;2022-09-23T03:44:00;98112.56;;;6.92;70.36
73085;BME280;62974;49.460;10.892;2022-09-23T03:46:28;98119.53;;;6.93;70.38
73085;BME280;62974;49.460;10.892;2022-09-23T03:49:08;98113.19;;;6.94;70.42
73085;BME280;62974;49.460;10.892;2022-09-23T03:51:38;98118.88;;;6.91;70.48
73085;BME280;62974;49.460;10.892;2022-09-23T03:54:10;98117.38;;;6.89;70.42
73085;BME280;62974;49.460;10.892;2022-09-23T03:56:37;98109.56;;;6.87;70.66
73085;BME280;62974;49.460;10.892;2022-09-23T03:59:05;98118.56;;;6.86;70.51
73085;BME280;62974;49.460;10.892;2022-09-23T04:01:32;98115.72;;;6.88;70.38
73085;BME280;62974;49.460;10.892;2022-09-23T04:04:00;98108.38;;;6.82;70.46
73085;BME280;62974;49.460;10.892;2022-09-23T04:06:28;98111.88;;;6.82;70.64
73085;BME280;62974;49.460;10.892;2022-09-23T04:08:57;98108.38;;;6.82;70.68
73085;BME280;62974;49.460;10.892;2022-09-23T04:11:25;98106.56;;;6.82;70.80
73085;BME280;62974;49.460;10.892;2022-09-23T04:13:53;98101.56;;;6.79;70.31
73085;BME280;62974;49.460;10.892;2022-09-23T04:16:21;98106.22;;;6.77;70.32
73085;BME280;62974;49.460;10.892;2022-09-23T04:18:49;98103.72;;;6.76;70.72
73085;BME280;62974;49.460;10.892;2022-09-23T04:21:17;98105.91;;;6.72;70.62
73085;BME280;62974;49.460;10.892;2022-09-23T04:23:45;98098.56;;;6.74;70.61
73085;BME280;62974;49.460;10.892;2022-09-23T04:26:14;98102.41;;;6.72;70.48
73085;BME280;62974;49.460;10.892;2022-09-23T04:28:41;98097.41;;;6.69;69.82
73085;BME280;62974;49.460;10.892;2022-09-23T04:31:09;98099.06;;;6.70;70.42
73085;BME280;62974;49.460;10.892;2022-09-23T04:33:37;98101.06;;;6.68;70.16
73085;BME280;62974;49.460;10.892;2022-09-23T04:36:05;98107.56;;;6.65;70.38
73085;BME280;62974;49.460;10.892;2022-09-23T04:38:33;98103.25;;;6.64;70.23
73085;BME280;62974;49.460;10.892;2022-09-23T04:41:01;98099.75;;;6.64;70.49
73085;BME280;62974;49.460;10.892;2022-09-23T04:43:29;98098.22;;;6.61;70.20
73085;BME280;62974;49.460;10.892;2022-09-23T04:45:58;98095.91;;;6.58;70.41
73085;BME280;62974;49.460;10.892;2022-09-23T04:48:26;98099.91;;;6.54;70.44
73085;BME280;62974;49.460;10.892;2022-09-23T04:50:53;98087.25;;;6.56;70.30
73085;BME280;62974;49.460;10.892;2022-09-23T04:53:21;98090.22;;;6.53;70.82
73085;BME280;62974;49.460;10.892;2022-09-23T04:55:48;98089.22;;;6.54;70.44
73085;BME280;62974;49.460;10.892;2022-09-23T04:58:17;98091.06;;;6.53;70.35
73085;BME280;62974;49.460;10.892;2022-09-23T05:00:49;98100.91;;;6.53;70.56
73085;BME280;62974;49.460;10.892;2022-09-23T05:03:17;98094.22;;;6.49;70.19
73085;BME280;62974;49.460;10.892;2022-09-23T05:05:45;98096.75;;;6.50;70.90
73085;BME280;62974;49.460;10.892;2022-09-23T05:08:12;98095.06;;;6.49;70.33
73085;BME280;62974;49.460;10.892;2022-09-23T05:10:40;98101.44;;;6.48;70.68
73085;BME280;62974;49.460;10.892;2022-09-23T05:13:08;98103.06;;;6.49;70.55
73085;BME280;62974;49.460;10.892;2022-09-23T05:15:36;98096.75;;;6.50;70.32
73085;BME280;62974;49.460;10.892;2022-09-23T05:18:04;98108.25;;;6.51;70.18
73085;BME280;62974;49.460;10.892;2022-09-23T05:20:32;98100.09;;;6.44;70.42
73085;BME280;62974;49.460;10.892;2022-09-23T05:22:59;98103.59;;;6.45;70.80
73085;BME280;62974;49.460;10.892;2022-09-23T05:25:27;98105.59;;;6.43;70.64
73085;BME280;62974;49.460;10.892;2022-09-23T05:27:54;98096.09;;;6.48;70.08
73085;BME280;62974;49.460;10.892;2022-09-23T05:32:50;98110.28;;;6.41;70.42
73085;BME280;62974;49.460;10.892;2022-09-23T05:35:19;98101.94;;;6.44;70.81
73085;BME280;62974;49.460;10.892;2022-09-23T05:37:46;98105.59;;;6.43;70.46
73085;BME280;62974;49.460;10.892;2022-09-23T05:40:14;98106.75;;;6.40;70.41
73085;BME280;62974;49.460;10.892;2022-09-23T05:42:41;98100.25;;;6.43;70.55
73085;BME280;62974;49.460;10.892;2022-09-23T05:45:09;98108.41;;;6.41;70.59
73085;BME280;62974;49.460;10.892;2022-09-23T05:47:36;98099.06;;;6.45;70.65
73085;BME280;62974;49.460;10.892;2022-09-23T05:50:05;98103.75;;;6.43;70.82
73085;BME280;62974;49.460;10.892;2022-09-23T05:52:34;98104.09;;;6.48;70.98
73085;BME280;62974;49.460;10.892;2022-09-23T05:55:01;98108.41;;;6.49;70.61
73085;BME280;62974;49.460;10.892;2022-09-23T05:57:29;98101.44;;;6.48;70.78
73085;BME280;62974;49.460;10.892;2022-09-23T05:59:57;98112.09;;;6.48;71.17
73085;BME280;62974;49.460;10.892;2022-09-23T06:02:25;98112.09;;;6.48;71.08
73085;BME280;62974;49.460;10.892;2022-09-23T06:04:53;98114.75;;;6.48;71.53
73085;BME280;62974;49.460;10.892;2022-09-23T06:07:20;98114.59;;;6.50;71.58
73085;BME280;62974;49.460;10.892;2022-09-23T06:09:49;98109.94;;;6.52;71.72
73085;BME280;62974;49.460;10.892;2022-09-23T06:12:19;98106.41;;;6.51;71.75
73085;BME280;62974;49.460;10.892;2022-09-23T06:14:47;98108.09;;;6.52;71.65
73085;BME280;62974;49.460;10.892;2022-09-23T06:17:15;98107.75;;;6.55;72.35
73085;BME280;62974;49.460;10.892;2022-09-23T06:19:43;98106.06;;;6.54;72.31
73085;BME280;62974;49.460;10.892;2022-09-23T06:22:11;98103.41;;;6.54;72.73
73085;BME280;62974;49.460;10.892;2022-09-23T06:24:42;98107.91;;;6.62;72.18
73085;BME280;62974;49.460;10.892;2022-09-23T06:27:11;98102.56;;;6.62;72.92
73085;BME280;62974;49.460;10.892;2022-09-23T06:29:38;98112.59;;;6.60;72.82
73085;BME280;62974;49.460;10.892;2022-09-23T06:32:06;98114.75;;;6.56;73.42
73085;BME280;62974;49.460;10.892;2022-09-23T06:34:34;98111.06;;;6.57;73.01
73085;BME280;62974;49.460;10.892;2022-09-23T06:37:15;98113.44;;;6.60;73.81
73085;BME280;62974;49.460;10.892;2022-09-23T06:39:46;98107.91;;;6.62;74.03
73085;BME280;62974;49.460;10.892;2022-09-23T06:42:15;98100.59;;;6.64;73.98
73085;BME280;62974;49.460;10.892;2022-09-23T06:44:43;98102.06;;;6.67;74.15
73085;BME280;62974;49.460;10.892;2022-09-23T06:47:11;98107.91;;;6.70;73.71
73085;BME280;62974;49.460;10.892;2022-09-23T06:49:38;98105.22;;;6.70;74.23
73085;BME280;62974;49.460;10.892;2022-09-23T06:52:06;98106.22;;;6.77;74.30
73085;BME280;62974;49.460;10.892;2022-09-23T06:54:34;98107.06;;;6.78;74.49
73085;BME280;62974;49.460;10.892;2022-09-23T06:57:03;98100.38;;;6.82;74.21
73085;BME280;62974;49.460;10.892;2022-09-23T06:59:32;98100.38;;;6.82;75.39
73085;BME280;62974;49.460;10.892;2022-09-23T07:02:00;98102.38;;;6.88;74.67
73085;BME280;62974;49.460;10.892;2022-09-23T07:04:28;98099.22;;;6.92;74.70
73085;BME280;62974;49.460;10.892;2022-09-23T07:06:55;98093.53;;;6.95;74.69
73085;BME280;62974;49.460;10.892;2022-09-23T07:09:23;98098.38;;;6.92;75.24
73085;BME280;62974;49.460;10.892;2022-09-23T07:11:51;98102.03;;;6.99;74.85
73085;BME280;62974;49.460;10.892;2022-09-23T07:14:18;98097.88;;;6.96;75.53
73085;BME280;62974;49.460;10.892;2022-09-23T07:16:49;98096.69;;;6.99;75.22
73085;BME280;62974;49.460;10.892;2022-09-23T07:19:16;98100.69;;;6.95;76.38
73085;BME280;62974;49.460;10.892;2022-09-23T07:21:44;98100.00;;;6.93;75.92
73085;BME280;62974;49.460;10.892;2022-09-23T07:24:11;98090.66;;;6.97;75.96
73085;BME280;62974;49.460;10.892;2022-09-23T07:26:39;98101.50;;;7.03;77.34
73085;BME280;62974;49.460;10.892;2022-09-23T07:29:12;98100.69;;;7.03;79.69
73085;BME280;62974;49.460;10.892;2022-09-23T07:31:40;98098.16;;;7.01;79.43
73085;BME280;62974;49.460;10.892;2022-09-23T07:34:09;98097.31;;;7.09;79.79
73085;BME280;62974;49.460;10.892;2022-09-23T07:36:37;98099.97;;;7.09;80.35
73085;BME280;62974;49.460;10.892;2022-09-23T07:39:06;98101.00;;;7.08;81.80
73085;BME280;62974;49.460;10.892;2022-09-23T07:41:34;98102.81;;;7.16;83.25
73085;BME280;62974;49.460;10.892;2022-09-23T07:44:02;98106.47;;;7.23;82.08
73085;BME280;62974;49.460;10.892;2022-09-23T07:46:33;98108.09;;;7.32;82.34
73085;BME280;62974;49.460;10.892;2022-09-23T07:49:03;98104.59;;;7.31;84.88
73085;BME280;62974;49.460;10.892;2022-09-23T07:51:34;98104.69;;;7.46;85.03
73085;BME280;62974;49.460;10.892;2022-09-23T07:54:05;98103.50;;;7.48;83.76
73085;BME280;62974;49.460;10.892;2022-09-23T07:56:35;98100.50;;;7.51;84.67
73085;BME280;62974;49.460;10.892;2022-09-23T07:59:03;98095.16;;;7.51;84.18
73085;BME280;62974;49.460;10.892;2022-09-23T08:01:33;98099.44;;;7.61;84.02
73085;BME280;62974;49.460;10.892;2022-09-23T08:04:04;98095.25;;;7.66;85.80
73085;BME280;62974;49.460;10.892;2022-09-23T08:06:33;98091.53;;;7.75;84.80
73085;BME280;62974;49.460;10.892;2022-09-23T08:09:02;98094.81;;;7.85;84.63
73085;BME280;62974;49.460;10.892;2022-09-23T08:11:29;98100.31;;;7.92;84.92
73085;BME280;62974;49.460;10.892;2022-09-23T08:13:58;98092.22;;;8.00;85.61
73085;BME280;62974;49.460;10.892;2022-09-23T08:16:25;98098.75;;;7.97;84.50
73085;BME280;62974;49.460;10.892;2022-09-23T08:18:53;98094.72;;;8.01;83.47
73085;BME280;62974;49.460;10.892;2022-09-23T08:21:21;98096.22;;;8.04;84.22
73085;BME280;62974;49.460;10.892;2022-09-23T08:23:50;98096.22;;;8.04;83.52
73085;BME280;62974;49.460;10.892;2022-09-23T08:26:18;98088.47;;;8.09;84.76
73085;BME280;62974;49.460;10.892;2022-09-23T08:28:48;98081.53;;;8.23;84.08
73085;BME280;62974;49.460;10.892;2022-09-23T08:31:19;98080.78;;;8.37;84.14
73085;BME280;62974;49.460;10.892;2022-09-23T08:33:47;98078.56;;;8.40;84.11
73085;BME280;62974;49.460;10.892;2022-09-23T08:36:15;98090.34;;;8.54;85.30
73085;BME280;62974;49.460;10.892;2022-09-23T08:38:42;98080.03;;;8.80;85.44
73085;BME280;62974;49.460;10.892;2022-09-23T08:41:16;98077.09;;;8.75;84.61
73085;BME280;62974;49.460;10.892;2022-09-23T08:43:48;98083.94;;;8.78;84.63
73085;BME280;62974;49.460;10.892;2022-09-23T08:46:22;98072.84;;;8.66;83.83
73085;BME280;62974;49.460;10.892;2022-09-23T08:48:50;98072.75;;;8.74;84.73
73085;BME280;62974;49.460;10.892;2022-09-23T08:51:22;98074.34;;;8.83;83.93
73085;BME280;62974;49.460;10.892;2022-09-23T08:53:52;98067.44;;;9.04;83.81
73085;BME280;62974;49.460;10.892;2022-09-23T08:56:22;98073.16;;;9.01;83.32
73085;BME280;62974;49.460;10.892;2022-09-23T08:58:57;98069.19;;;9.11;83.46
73085;BME280;62974;49.460;10.892;2022-09-23T09:01:29;98061.97;;;9.12;83.81
73085;BME280;62974;49.460;10.892;2022-09-23T09:04:02;98070.19;;;9.25;83.47
73085;BME280;62974;49.460;10.892;2022-09-23T09:06:39;98062.25;;;9.31;83.18
73085;BME280;62974;49.460;10.892;2022-09-23T09:09:22;98069.16;;;9.40;82.57
73085;BME280;62974;49.460;10.892;2022-09-23T09:11:54;98066.09;;;9.43;82.29
73085;BME280;62974;49.460;10.892;2022-09-23T09:14:33;98063.53;;;9.50;82.72
73085;BME280;62974;49.460;10.892;2022-09-23T09:17:04;98059.91;;;9.58;82.99
73085;BME280;62974;49.460;10.892;2022-09-23T09:22:39;98061.56;;;9.95;81.96
73085;BME280;62974;49.460;10.892;2022-09-23T09:25:17;98061.44;;;9.81;82.11
73085;BME280;62974;49.460;10.892;2022-09-23T09:27:50;98055.56;;;9.93;81.84
73085;BME280;62974;49.460;10.892;2022-09-23T09:30:19;98058.13;;;10.01;81.75
73085;BME280;62974;49.460;10.892;2022-09-23T09:32:47;98055.88;;;10.04;81.96
73085;BME280;62974;49.460;10.892;2022-09-23T09:35:24;98047.94;;;10.32;81.19
73085;BME280;62974;49.460;10.892;2022-09-23T09:37:53;98046.56;;;10.15;80.18
73085;BME280;62974;49.460;10.892;2022-09-23T09:40:21;98039.88;;;10.32;79.97
73085;BME280;62974;49.460;10.892;2022-09-23T09:42:50;98044.88;;;10.35;80.65
73085;BME280;62974;49.460;10.892;2022-09-23T09:45:24;98032.78;;;10.46;79.95
73085;BME280;62974;49.460;10.892;2022-09-23T09:48:00;98029.16;;;10.60;80.32
73085;BME280;62974;49.460;10.892;2022-09-23T09:50:45;98026.78;;;10.71;79.71
73085;BME280;62974;49.460;10.892;2022-09-23T09:53:24;98023.22;;;10.64;79.21
73085;BME280;62974;49.460;10.892;2022-09-23T09:55:58;98027.19;;;10.75;80.14
73085;BME280;62974;49.460;10.892;2022-09-23T09:58:35;98024.16;;;10.78;78.19
73085;BME280;62974;49.460;10.892;2022-09-23T10:01:17;98020.19;;;11.08;77.79
73085;BME280;62974;49.460;10.892;2022-09-23T10:03:45;98016.63;;;10.95;76.19
73085;BME280;62974;49.460;10.892;2022-09-23T10:06:19;98008.69;;;11.21;75.60
73085;BME280;62974;49.460;10.892;2022-09-23T10:09:09;98007.59;;;11.50;75.02
73085;BME280;62974;49.460;10.892;2022-09-23T10:11:38;98006.50;;;11.44;74.50
73085;BME280;62974;49.460;10.892;2022-09-23T10:14:12;97998.59;;;11.29;75.31
73085;BME280;62974;49.460;10.892;2022-09-23T10:16:43;98009.75;;;11.26;77.21
73085;BME280;62974;49.460;10.892;2022-09-23T10:19:23;98003.47;;;11.54;75.86
73085;BME280;62974;49.460;10.892;2022-09-23T10:21:53;98005.50;;;11.52;76.24
73085;BME280;62974;49.460;10.892;2022-09-23T10:24:24;97997.06;;;11.61;75.27
73085;BME280;62974;49.460;10.892;2022-09-23T10:26:57;97996.03;;;11.62;75.08
73085;BME280;62974;49.460;10.892;2022-09-23T10:29:30;97992.38;;;11.76;74.33
73085;BME280;62974;49.460;10.892;2022-09-23T10:32:19;97990.34;;;11.85;74.30
73085;BME280;62974;49.460;10.892;2022-09-23T10:34:53;97985.56;;;11.81;74.12
73085;BME280;62974;49.460;10.892;2022-09-23T10:37:30;97983.50;;;11.96;73.14
73085;BME280;62974;49.460;10.892;2022-09-23T10:39:59;97984.13;;;11.85;73.23
73085;BME280;62974;49.460;10.892;2022-09-23T10:42:54;97989.13;;;12.01;73.22
73085;BME280;62974;49.460;10.892;2022-09-23T10:45:47;97978.75;;;12.70;68.83
73085;BME280;62974;49.460;10.892;2022-09-23T10:48:57;97971.06;;;12.80;67.95
73085;BME280;62974;49.460;10.892;2022-09-23T10:51:39;97971.13;;;12.54;69.87
73085;BME280;62974;49.460;10.892;2022-09-23T10:54:18;97962.81;;;12.42;70.63
73085;BME280;62974;49.460;10.892;2022-09-23T10:56:51;97963.63;;;12.76;68.83
73085;BME280;62974;49.460;10.892;2022-09-23T10:59:38;97963.16;;;13.05;67.75
73085;BME280;62974;49.460;10.892;2022-09-23T11:02:23;97964.19;;;13.10;67.72
73085;BME280;62974;49.460;10.892;2022-09-23T11:05:06;97956.53;;;12.88;69.20
73085;BME280;62974;49.460;10.892;2022-09-23T11:07:44;97962.13;;;12.93;69.13
73085;BME280;62974;49.460;10.892;2022-09-23T11:10:39;97956.69;;;13.06;68.09
73085;BME280;62974;49.460;10.892;2022-09-23T11:13:22;97953.03;;;12.81;69.25
73085;BME280;62974;49.460;10.892;2022-09-23T11:16:03;97957.19;;;12.70;69.38
73085;BME280;62974;49.460;10.892;2022-09-23T11:18:54;97962.56;;;12.83;69.47
73085;BME280;62974;49.460;10.892;2022-09-23T11:21:38;97958.00;;;12.84;68.14
73085;BME280;62974;49.460;10.892;2022-09-23T11:24:18;97957.13;;;13.03;67.10
73085;BME280;62974;49.460;10.892;2022-09-23T11:26:55;97951.97;;;12.95;68.11
73085;BME280;62974;49.460;10.892;2022-09-23T11:29:45;97950.91;;;13.09;68.79
73085;BME280;62974;49.460;10.892;2022-09-23T11:32:29;97942.81;;;13.15;67.25
73085;BME280;62974;49.460;10.892;2022-09-23T11:35:12;97941.97;;;13.08;68.14
73085;BME280;62974;49.460;10.892;2022-09-23T11:37:45;97934.91;;;13.21;67.91
73085;BME280;62974;49.460;10.892;2022-09-23T11:40:18;97925.06;;;13.39;67.53
73085;BME280;62974;49.460;10.892;2022-09-23T11:42:52;97922.94;;;13.48;66.81
73085;BME280;62974;49.460;10.892;2022-09-23T11:45:25;97921.03;;;13.55;65.82
73085;BME280;62974;49.460;10.892;2022-09-23T11:47:59;97915.38;;;13.63;66.17
73085;BME280;62974;49.460;10.892;2022-09-23T11:50:32;97916.22;;;13.63;65.75
73085;BME280;62974;49.460;10.892;2022-09-23T11:53:05;97906.81;;;13.73;64.79
73085;BME280;62974;49.460;10.892;2022-09-23T11:55:39;97907.41;;;13.75;62.63
73085;BME280;62974;49.460;10.892;2022-09-23T11:58:26;97903.47;;;13.77;62.64
73085;BME280;62974;49.460;10.892;2022-09-23T12:00:58;97903.00;;;14.11;60.50
73085;BME280;62974;49.460;10.892;2022-09-23T12:03:35;97896.66;;;13.99;62.35
73085;BME280;62974;49.460;10.892;2022-09-23T12:06:13;97898.69;;;14.04;60.79
73085;BME280;62974;49.460;10.892;2022-09-23T12:08:43;97897.03;;;14.03;61.60
73085;BME280;62974;49.460;10.892;2022-09-23T12:11:20;97896.16;;;13.84;62.46
73085;BME280;62974;49.460;10.892;2022-09-23T12:13:55;97892.19;;;13.87;64.16
73085;BME280;62974;49.460;10.892;2022-09-23T12:16:40;97893.47;;;13.78;64.86
73085;BME280;62974;49.460;10.892;2022-09-23T12:19:21;97882.91;;;13.76;62.97
73085;BME280;62974;49.460;10.892;2022-09-23T12:22:08;97887.03;;;13.79;63.28
73085;BME280;62974;49.460;10.892;2022-09-23T12:24:45;97883.88;;;13.88;63.41
73085;BME280;62974;49.460;10.892;2022-09-23T12:27:23;97874.50;;;14.16;63.08
73085;BME280;62974;49.460;10.892;2022-09-23T12:29:55;97880.47;;;14.49;60.70
73085;BME280;62974;49.460;10.892;2022-09-23T12:32:25;97872.66;;;14.41;61.05
73085;BME280;62974;49.460;10.892;2022-09-23T12:34:53;97869.09;;;14.16;62.55
73085;BME280;62974;49.460;10.892;2022-09-23T12:37:26;97861.94;;;14.03;63.57
73085;BME280;62974;49.460;10.892;2022-09-23T12:39:58;97862.09;;;14.08;63.72
73085;BME280;62974;49.460;10.892;2022-09-23T12:42:28;97865.66;;;14.27;62.29
73085;BME280;62974;49.460;10.892;2022-09-23T12:48:01;97857.34;;;14.28;59.61
73085;BME280;62974;49.460;10.892;2022-09-23T12:50:45;97857.09;;;14.54;58.16
73085;BME280;62974;49.460;10.892;2022-09-23T12:56:22;97849.66;;;14.50;57.80
73085;BME280;62974;49.460;10.892;2022-09-23T12:59:00;97854.00;;;14.33;60.76
73085;BME280;62974;49.460;10.892;2022-09-23T13:01:36;97847.22;;;14.48;60.51
73085;BME280;62974;49.460;10.892;2022-09-23T13:04:04;97852.25;;;14.45;60.96
73085;BME280;62974;49.460;10.892;2022-09-23T13:06:55;97839.31;;;14.47;60.63
73085;BME280;62974;49.460;10.892;2022-09-23T13:09:26;97837.81;;;14.87;57.51
73085;BME280;62974;49.460;10.892;2022-09-23T13:11:58;97839.47;;;14.70;58.21
73085;BME280;62974;49.460;10.892;2022-09-23T13:14:28;97834.97;;;14.64;58.23
73085;BME280;62974;49.460;10.892;2022-09-23T13:16:58;97828.34;;;14.78;58.49
73085;BME280;62974;49.460;10.892;2022-09-23T13:19:45;97831.16;;;15.01;58.30
73085;BME280;62974;49.460;10.892;2022-09-23T13:22:12;97823.09;;;15.13;53.93
73085;BME280;62974;49.460;10.892;2022-09-23T13:24:42;97821.28;;;14.77;56.47
73085;BME280;62974;49.460;10.892;2022-09-23T13:27:16;97825.22;;;14.63;59.25
73085;BME280;62974;49.460;10.892;2022-09-23T13:29:49;97814.41;;;14.63;59.05
73085;BME280;62974;49.460;10.892;2022-09-23T13:32:19;97816.56;;;14.54;59.77
73085;BME280;62974;49.460;10.892;2022-09-23T13:34:53;97813.56;;;14.63;58.66
73085;BME280;62974;49.460;10.892;2022-09-23T13:37:28;97818.53;;;14.47;57.00